createdAt,value
2022-08-16T00:01:04.308Z,98956.84
2022-08-16T00:03:37.564Z,98947.19
2022-08-16T00:06:08.047Z,98953.59
2022-08-16T00:08:40.165Z,98949.00
2022-08-16T00:11:16.896Z,98950.66
2022-08-16T00:13:53.309Z,98951.94
2022-08-16T00:17:05.374Z,98953.84
2022-08-16T00:19:19.788Z,98959.34
2022-08-16T00:21:56.042Z,98961.75
2022-08-16T00:24:32.984Z,98969.97
2022-08-16T00:27:05.523Z,98970.81
2022-08-16T00:29:39.762Z,98961.81
2022-08-16T00:32:13.153Z,98956.66
2022-08-16T00:34:53.015Z,98959.03
2022-08-16T00:37:57.311Z,98964.75
2022-08-16T00:40:35.019Z,98968.00
2022-08-16T00:43:11.954Z,98971.78
2022-08-16T00:45:57.800Z,98970.47
2022-08-16T00:48:40.371Z,98986.41
2022-08-16T00:51:16.015Z,98991.91
2022-08-16T00:53:48.037Z,98988.97
2022-08-16T00:56:58.663Z,98993.06
2022-08-16T00:59:15.400Z,98993.38
2022-08-16T01:01:47.348Z,99000.63
2022-08-16T01:04:29.428Z,98999.19
2022-08-16T01:07:04.835Z,99010.31
2022-08-16T01:09:42.989Z,99005.22
2022-08-16T01:12:26.545Z,99000.78
2022-08-16T01:15:00.521Z,98996.81
2022-08-16T01:17:36.676Z,99010.53
2022-08-16T01:20:23.703Z,99007.31
2022-08-16T01:23:08.770Z,99022.94
2022-08-16T01:25:44.699Z,99020.91
2022-08-16T01:28:33.009Z,99020.13
2022-08-16T01:31:05.432Z,99007.09
2022-08-16T01:33:35.935Z,98958.38
2022-08-16T01:36:12.044Z,99007.94
2022-08-16T01:38:49.020Z,99001.44
2022-08-16T01:41:26.137Z,99009.47
2022-08-16T01:44:00.874Z,99012.53
2022-08-16T01:46:39.845Z,99007.44
2022-08-16T01:49:14.910Z,99012.28
2022-08-16T01:51:47.335Z,99003.56
2022-08-16T01:54:17.359Z,99002.09
2022-08-16T01:57:03.309Z,99006.88
2022-08-16T01:59:33.894Z,99002.53
2022-08-16T02:02:05.028Z,99008.78
2022-08-16T02:04:55.034Z,99008.78
2022-08-16T02:07:25.491Z,99017.28
2022-08-16T02:09:59.053Z,99017.28
2022-08-16T02:12:50.455Z,98996.91
2022-08-16T02:15:25.990Z,99011.88
2022-08-16T02:17:57.793Z,99011.75
2022-08-16T02:20:29.100Z,98997.03
2022-08-16T02:23:01.693Z,99013.09
2022-08-16T02:25:50.587Z,99022.13
2022-08-16T02:28:24.773Z,99016.69
2022-08-16T02:30:58.015Z,99024.97
2022-08-16T02:33:44.647Z,99021.47
2022-08-16T02:36:47.432Z,99019.38
2022-08-16T02:39:11.659Z,99026.16
2022-08-16T02:41:53.298Z,99022.94
2022-08-16T02:44:27.085Z,99021.97
2022-08-16T02:46:58.591Z,99023.59
2022-08-16T02:49:57.931Z,99010.13
2022-08-16T02:52:29.079Z,99011.84
2022-08-16T02:55:00.110Z,99012.00
2022-08-16T02:57:31.164Z,99008.53
2022-08-16T03:00:33.989Z,99016.06
2022-08-16T03:02:57.581Z,99014.59
2022-08-16T03:05:30.866Z,99004.13
2022-08-16T03:08:01.492Z,99012.53
2022-08-16T03:10:33.332Z,99026.72
2022-08-16T03:13:12.436Z,99032.53
2022-08-16T03:15:44.711Z,99030.28
2022-08-16T03:18:34.775Z,99031.06
2022-08-16T03:21:10.148Z,99036.09
2022-08-16T03:23:43.619Z,99042.78
2022-08-16T03:26:14.999Z,99062.00
2022-08-16T03:28:48.257Z,99057.00
2022-08-16T03:31:20.278Z,99060.09
2022-08-16T03:33:52.140Z,99057.63
2022-08-16T03:36:30.809Z,99064.25
2022-08-16T03:39:03.425Z,99059.69
2022-08-16T03:41:49.627Z,99060.13
2022-08-16T03:44:43.348Z,99066.22
2022-08-16T03:47:12.699Z,99060.78
2022-08-16T03:49:51.901Z,99057.03
2022-08-16T03:52:23.966Z,99068.69
2022-08-16T03:55:01.712Z,99068.91
2022-08-16T03:57:35.749Z,99064.53
2022-08-16T04:00:20.703Z,99072.84
2022-08-16T04:03:08.841Z,99071.38
2022-08-16T04:05:44.246Z,99077.25
2022-08-16T04:08:24.199Z,99071.00
2022-08-16T04:10:57.930Z,99076.00
2022-08-16T04:13:59.062Z,99078.69
2022-08-16T04:16:27.521Z,99078.47
2022-08-16T04:19:02.233Z,99077.41
2022-08-16T04:21:34.463Z,99073.22
2022-08-16T04:24:07.920Z,99076.97
2022-08-16T04:26:38.311Z,99063.84
2022-08-16T04:29:24.412Z,99078.22
2022-08-16T04:31:56.913Z,99072.56
2022-08-16T04:34:32.613Z,99077.34
2022-08-16T04:37:03.355Z,99069.22
2022-08-16T04:39:47.093Z,99071.91
2022-08-16T04:42:26.507Z,99059.38
2022-08-16T04:45:01.967Z,99064.78
2022-08-16T04:47:35.859Z,99060.69
2022-08-16T04:50:11.363Z,99064.44
2022-08-16T04:52:46.566Z,99063.13
2022-08-16T04:55:18.974Z,99062.25
2022-08-16T04:57:53.665Z,99029.91
2022-08-16T05:00:32.696Z,99053.84
2022-08-16T05:03:07.633Z,99047.72
2022-08-16T05:05:44.807Z,99037.94
2022-08-16T05:08:29.844Z,99049.31
2022-08-16T05:11:03.705Z,99052.22
2022-08-16T05:13:41.750Z,99037.75
2022-08-16T05:16:19.791Z,99058.81
2022-08-16T05:18:52.430Z,99059.13
2022-08-16T05:21:24.377Z,99055.88
2022-08-16T05:24:00.318Z,99049.53
2022-08-16T05:26:33.287Z,99048.03
2022-08-16T05:29:04.562Z,99055.28
2022-08-16T05:31:35.257Z,99051.28
2022-08-16T05:34:05.802Z,99054.06
2022-08-16T05:36:53.113Z,99056.34
2022-08-16T05:39:23.229Z,99053.84
2022-08-16T05:41:55.654Z,99046.41
2022-08-16T05:44:25.868Z,99058.94
2022-08-16T05:46:57.738Z,99067.22
2022-08-16T05:49:39.770Z,99065.44
2022-08-16T05:52:13.620Z,99071.16
2022-08-16T05:55:01.018Z,99077.22
2022-08-16T05:57:34.483Z,99072.06
2022-08-16T06:00:09.789Z,99077.31
2022-08-16T06:02:40.254Z,99076.50
2022-08-16T06:05:11.166Z,99057.72
2022-08-16T06:07:58.503Z,99060.69
2022-08-16T06:10:31.860Z,99061.69
2022-08-16T06:13:03.139Z,99060.16
2022-08-16T06:15:33.637Z,99065.13
2022-08-16T06:18:06.062Z,99062.88
2022-08-16T06:20:36.853Z,99057.66
2022-08-16T06:23:23.974Z,99066.66
2022-08-16T06:25:54.299Z,99055.59
2022-08-16T06:28:36.263Z,99065.22
2022-08-16T06:31:12.090Z,99058.53
2022-08-16T06:33:44.764Z,99058.31
2022-08-16T06:36:16.597Z,99065.03
2022-08-16T06:38:55.617Z,99061.06
2022-08-16T06:41:27.646Z,99050.94
2022-08-16T06:43:58.050Z,99037.03
2022-08-16T06:46:34.123Z,99049.84
2022-08-16T06:49:06.253Z,99042.41
2022-08-16T06:51:48.000Z,99041.09
2022-08-16T06:54:20.251Z,99049.22
2022-08-16T06:56:53.949Z,99053.22
2022-08-16T06:59:25.586Z,99043.78
2022-08-16T07:01:58.400Z,99045.84
2022-08-16T07:04:33.217Z,99043.19
2022-08-16T07:07:09.802Z,99047.34
2022-08-16T07:09:41.240Z,99051.50
2022-08-16T07:12:12.637Z,99048.44
2022-08-16T07:14:48.624Z,99039.81
2022-08-16T07:17:21.695Z,99045.69
2022-08-16T07:20:30.158Z,99038.69
2022-08-16T07:22:43.288Z,99045.06
2022-08-16T07:25:24.930Z,99041.00
2022-08-16T07:27:55.429Z,99025.47
2022-08-16T07:30:45.538Z,99050.31
2022-08-16T07:33:48.122Z,99036.72
2022-08-16T07:36:08.505Z,99039.69
2022-08-16T07:38:39.932Z,99033.97
2022-08-16T07:41:11.932Z,99016.97
2022-08-16T07:43:42.124Z,99042.97
2022-08-16T07:46:37.511Z,99038.13
2022-08-16T07:49:04.598Z,99037.09
2022-08-16T07:51:42.620Z,99042.69
2022-08-16T07:54:20.748Z,99045.47
2022-08-16T07:56:53.169Z,99043.16
2022-08-16T07:59:26.116Z,99035.44
2022-08-16T08:02:19.868Z,99027.78
2022-08-16T08:04:51.029Z,99039.41
2022-08-16T08:07:20.944Z,99038.09
2022-08-16T08:09:50.840Z,99023.13
2022-08-16T08:12:31.941Z,99020.47
2022-08-16T08:15:09.608Z,99032.88
2022-08-16T08:17:42.685Z,99034.31
2022-08-16T08:20:23.902Z,99029.16
2022-08-16T08:23:00.804Z,99034.66
2022-08-16T08:25:53.664Z,99018.19
2022-08-16T08:28:23.313Z,99018.28
2022-08-16T08:31:01.089Z,99022.16
2022-08-16T08:33:33.989Z,99015.31
2022-08-16T08:36:07.472Z,99021.06
2022-08-16T08:38:45.321Z,99013.19
2022-08-16T08:41:18.627Z,99012.66
2022-08-16T08:43:51.285Z,99022.06
2022-08-16T08:46:22.550Z,99023.19
2022-08-16T08:48:59.512Z,99012.69
2022-08-16T08:51:35.922Z,99008.84
2022-08-16T08:54:09.479Z,99004.19
2022-08-16T08:56:45.417Z,99008.63
2022-08-16T08:59:20.165Z,99013.56
2022-08-16T09:01:57.532Z,99011.94
2022-08-16T09:04:29.011Z,99014.69
2022-08-16T09:07:01.303Z,99008.91
2022-08-16T09:09:33.335Z,99007.50
2022-08-16T09:12:06.765Z,99004.22
2022-08-16T09:14:50.939Z,98992.72
2022-08-16T09:17:45.598Z,98999.38
2022-08-16T09:20:14.475Z,98993.06
2022-08-16T09:22:52.371Z,98992.47
2022-08-16T09:25:26.328Z,99001.88
2022-08-16T09:28:08.959Z,99002.13
2022-08-16T09:30:44.276Z,98993.91
2022-08-16T09:33:19.987Z,98995.56
2022-08-16T09:35:53.060Z,98961.72
2022-08-16T09:38:32.456Z,99002.69
2022-08-16T09:41:14.403Z,99007.09
2022-08-16T09:43:59.435Z,99002.41
2022-08-16T09:46:45.927Z,98998.28
2022-08-16T09:49:20.309Z,98994.19
2022-08-16T09:51:55.557Z,98981.53
2022-08-16T09:54:32.224Z,98995.84
2022-08-16T09:57:03.477Z,98990.34
2022-08-16T09:59:38.217Z,98991.97
2022-08-16T10:02:26.607Z,98978.50
2022-08-16T10:04:58.952Z,98985.09
2022-08-16T10:07:55.150Z,98980.72
2022-08-16T10:10:30.406Z,98979.28
2022-08-16T10:13:12.735Z,98983.69
2022-08-16T10:15:55.602Z,98984.22
2022-08-16T10:19:02.242Z,98957.28
2022-08-16T10:21:19.770Z,98975.69
2022-08-16T10:23:53.671Z,98976.25
2022-08-16T10:27:19.015Z,98981.97
2022-08-16T10:29:20.164Z,98975.91
2022-08-16T10:31:53.555Z,98978.94
2022-08-16T10:34:32.405Z,98962.69
2022-08-16T10:37:03.365Z,98960.47
2022-08-16T10:39:41.589Z,98922.53
2022-08-16T10:42:13.705Z,98958.31
2022-08-16T10:44:53.380Z,98957.66
2022-08-16T10:47:24.002Z,98954.03
2022-08-16T10:49:56.010Z,98964.69
2022-08-16T10:52:27.823Z,98958.03
2022-08-16T10:57:56.332Z,98958.56
2022-08-16T11:00:27.100Z,98958.28
2022-08-16T11:03:01.209Z,98946.47
2022-08-16T11:08:35.260Z,98936.53
2022-08-16T11:11:11.721Z,98941.53
2022-08-16T11:13:58.749Z,98945.81
2022-08-16T11:19:20.173Z,98934.94
2022-08-16T11:24:45.033Z,98936.88
2022-08-16T11:27:22.951Z,98941.31
2022-08-16T11:29:56.639Z,98935.00
2022-08-16T11:32:31.429Z,98931.75
2022-08-16T11:35:13.335Z,98915.16
2022-08-16T11:40:44.199Z,98919.19
2022-08-16T11:43:16.903Z,98924.78
2022-08-16T11:45:54.162Z,98925.94
2022-08-16T11:48:25.601Z,98927.13
2022-08-16T11:50:56.437Z,98924.47
2022-08-16T11:53:29.951Z,98927.66
2022-08-16T11:56:06.777Z,98937.38
2022-08-16T11:58:39.500Z,98936.97
2022-08-16T12:01:11.929Z,98919.47
2022-08-16T12:03:45.956Z,98911.78
2022-08-16T12:06:30.303Z,98915.53
2022-08-16T12:09:04.245Z,98914.53
2022-08-16T12:11:34.692Z,98900.06
2022-08-16T12:14:06.721Z,98913.94
2022-08-16T12:16:37.914Z,98912.78
2022-08-16T12:19:13.607Z,98901.31
2022-08-16T12:21:59.400Z,98902.69
2022-08-16T12:24:31.064Z,98896.44
2022-08-16T12:27:01.600Z,98895.28
2022-08-16T12:29:31.610Z,98888.66
2022-08-16T12:32:26.608Z,98896.44
2022-08-16T12:34:53.032Z,98886.28
2022-08-16T12:37:24.713Z,98889.84
2022-08-16T12:39:57.142Z,98883.81
2022-08-16T12:42:35.189Z,98891.53
2022-08-16T12:45:07.595Z,98882.25
2022-08-16T12:48:15.886Z,98892.75
2022-08-16T12:50:49.099Z,98879.06
2022-08-16T12:53:21.413Z,98883.44
2022-08-16T12:55:53.515Z,98858.13
2022-08-16T12:58:48.289Z,98869.66
2022-08-16T13:01:14.238Z,98861.47
2022-08-16T13:03:45.328Z,98878.53
2022-08-16T13:06:19.996Z,98873.06
2022-08-16T13:09:02.505Z,98875.66
2022-08-16T13:11:41.470Z,98860.28
2022-08-16T13:14:31.300Z,98861.78
2022-08-16T13:17:05.158Z,98856.00
2022-08-16T13:20:06.617Z,98862.88
2022-08-16T13:22:28.182Z,98853.13
2022-08-16T13:24:58.520Z,98836.97
2022-08-16T13:28:02.604Z,98857.00
2022-08-16T13:30:35.691Z,98870.47
2022-08-16T13:33:12.436Z,98863.09
2022-08-16T13:35:55.944Z,98863.94
2022-08-16T13:38:31.564Z,98876.34
2022-08-16T13:41:09.464Z,98733.66
2022-08-16T13:43:41.973Z,98870.22
2022-08-16T13:46:12.091Z,98861.56
2022-08-16T13:48:44.699Z,98869.75
2022-08-16T13:51:18.006Z,98861.28
2022-08-16T13:53:59.637Z,98833.09
2022-08-16T13:56:37.482Z,98861.34
2022-08-16T13:59:20.196Z,98870.94
2022-08-16T14:01:55.422Z,98861.91
2022-08-16T14:04:28.257Z,98851.03
2022-08-16T14:06:59.811Z,98858.44
2022-08-16T14:09:32.180Z,98856.84
2022-08-16T14:12:09.768Z,98859.28
2022-08-16T14:14:56.354Z,98857.75
2022-08-16T14:17:28.029Z,98862.38
2022-08-16T14:19:59.679Z,98859.03
2022-08-16T14:22:35.869Z,98870.06
2022-08-16T14:25:16.272Z,98866.72
2022-08-16T14:27:47.653Z,98874.50
2022-08-16T14:30:25.590Z,98872.63
2022-08-16T14:32:56.027Z,98875.19
2022-08-16T14:35:36.686Z,98871.34
2022-08-16T14:38:23.783Z,98869.81
2022-08-16T14:40:55.587Z,98861.00
2022-08-16T14:43:29.735Z,98862.47
2022-08-16T14:46:04.629Z,98867.97
2022-08-16T14:48:37.520Z,98855.63
2022-08-16T14:51:07.519Z,98862.25
2022-08-16T14:53:38.703Z,98855.66
2022-08-16T14:56:38.261Z,98855.72
2022-08-16T14:59:07.082Z,98851.63
2022-08-16T15:01:57.960Z,98853.59
2022-08-16T15:04:47.816Z,98869.63
2022-08-16T15:07:21.639Z,98871.00
2022-08-16T15:10:00.013Z,98861.97
2022-08-16T15:12:36.396Z,98849.69
2022-08-16T15:15:16.636Z,98868.69
2022-08-16T15:17:56.758Z,98867.59
2022-08-16T15:20:30.719Z,98876.44
2022-08-16T15:23:04.066Z,98877.53
2022-08-16T15:25:41.461Z,98871.47
2022-08-16T15:28:30.517Z,98866.84
2022-08-16T15:31:04.546Z,98874.25
2022-08-16T15:33:44.282Z,98877.56
2022-08-16T15:36:19.154Z,98866.03
2022-08-16T15:39:02.213Z,98872.66
2022-08-16T15:41:58.237Z,98873.25
2022-08-16T15:44:42.743Z,98875.16
2022-08-16T15:47:22.458Z,98865.56
2022-08-16T15:49:57.961Z,98871.59
2022-08-16T15:52:30.757Z,98857.88
2022-08-16T15:55:07.535Z,98862.81
2022-08-16T15:57:53.865Z,98819.94
2022-08-16T16:00:26.792Z,98862.81
2022-08-16T16:03:08.738Z,98875.97
2022-08-16T16:05:43.277Z,98867.44
2022-08-16T16:08:22.437Z,98874.03
2022-08-16T16:10:59.316Z,98875.16
2022-08-16T16:13:30.280Z,98875.69
2022-08-16T16:16:03.904Z,98878.97
2022-08-16T16:18:48.705Z,98880.03
2022-08-16T16:21:20.915Z,98881.38
2022-08-16T16:23:54.896Z,98870.94
2022-08-16T16:26:28.157Z,98868.72
2022-08-16T16:29:08.901Z,98871.97
2022-08-16T16:31:59.083Z,98875.81
2022-08-16T16:34:32.221Z,98878.00
2022-08-16T16:37:09.466Z,98886.50
2022-08-16T16:39:41.059Z,98878.53
2022-08-16T16:42:29.173Z,98890.84
2022-08-16T16:45:03.062Z,98887.81
2022-08-16T16:47:41.738Z,98879.53
2022-08-16T16:50:24.517Z,98893.22
2022-08-16T16:52:57.885Z,98871.75
2022-08-16T16:55:29.043Z,98892.91
2022-08-16T16:58:17.787Z,98905.31
2022-08-16T17:00:59.808Z,98891.59
2022-08-16T17:03:30.437Z,98881.00
2022-08-16T17:06:03.141Z,98885.16
2022-08-16T17:08:41.988Z,98884.59
2022-08-16T17:11:12.644Z,98898.81
2022-08-16T17:13:43.930Z,98909.53
2022-08-16T17:19:16.604Z,98919.91
2022-08-16T17:21:52.129Z,98919.56
2022-08-16T17:24:31.989Z,98920.97
2022-08-16T17:27:10.331Z,98881.53
2022-08-16T17:29:45.899Z,98927.19
2022-08-16T17:32:46.651Z,98927.72
2022-08-16T17:35:17.840Z,98926.38
2022-08-16T17:37:51.937Z,98932.38
2022-08-16T17:39:28.191Z,98918.22
2022-08-16T17:40:40.346Z,98933.41
2022-08-16T17:43:17.508Z,98944.59
2022-08-16T17:45:48.806Z,98941.00
2022-08-16T17:48:18.984Z,98944.59
2022-08-16T17:50:49.072Z,98951.97
2022-08-16T17:53:25.372Z,98921.88
2022-08-16T17:55:57.131Z,98967.31
2022-08-16T17:58:27.424Z,98969.69
2022-08-16T18:00:59.944Z,98970.84
2022-08-16T18:03:40.844Z,98969.19
2022-08-16T18:06:25.568Z,98966.94
2022-08-16T18:09:02.700Z,98962.81
2022-08-16T18:11:41.209Z,98964.19
2022-08-16T18:14:15.749Z,98967.72
2022-08-16T18:16:47.948Z,98969.34
2022-08-16T18:19:17.947Z,98970.13
2022-08-16T18:22:10.590Z,98977.25
2022-08-16T18:24:40.612Z,98971.97
2022-08-16T18:27:25.893Z,98982.94
2022-08-16T18:29:56.990Z,98981.22
2022-08-16T18:32:27.626Z,98985.31
2022-08-16T18:34:58.320Z,98992.75
2022-08-16T18:37:28.263Z,98984.50
2022-08-16T18:39:58.639Z,98980.63
2022-08-16T18:42:30.027Z,98983.34
2022-08-16T18:44:59.836Z,98982.75
2022-08-16T18:47:29.752Z,98986.88
2022-08-16T18:50:00.522Z,98984.94
2022-08-16T18:52:30.759Z,98983.03
2022-08-16T18:55:13.946Z,98979.72
2022-08-16T18:57:46.705Z,98978.06
2022-08-16T19:00:20.845Z,98977.19
2022-08-16T19:02:58.910Z,98976.38
2022-08-16T19:05:30.900Z,98993.56
2022-08-16T19:08:02.333Z,98995.19
2022-08-16T19:10:33.458Z,99001.50
2022-08-16T19:13:10.078Z,99011.63
2022-08-16T19:15:42.168Z,99002.78
2022-08-16T19:18:12.501Z,99017.59
2022-08-16T19:20:44.726Z,99024.09
2022-08-16T19:23:17.514Z,99026.94
2022-08-16T19:25:53.022Z,99020.81
2022-08-16T19:28:51.581Z,99008.91
2022-08-16T19:31:21.982Z,99021.00
2022-08-16T19:33:55.400Z,99015.41
2022-08-16T19:36:31.730Z,99021.53
2022-08-16T19:39:06.373Z,99028.28
2022-08-16T19:41:38.157Z,99024.06
2022-08-16T19:44:10.202Z,99021.91
2022-08-16T19:46:44.910Z,99024.84
2022-08-16T19:49:16.476Z,99025.66
2022-08-16T19:51:47.315Z,99031.38
2022-08-16T19:54:17.647Z,98995.56
2022-08-16T19:56:47.960Z,99034.34
2022-08-16T19:59:40.565Z,99027.72
2022-08-16T20:02:35.903Z,99026.66
2022-08-16T20:05:07.057Z,99032.19
2022-08-16T20:07:37.078Z,99023.81
2022-08-16T20:10:08.222Z,99027.28
2022-08-16T20:12:38.807Z,98978.84
2022-08-16T20:15:15.847Z,99025.31
2022-08-16T20:17:46.381Z,99021.00
2022-08-16T20:20:20.242Z,99005.00
2022-08-16T20:22:53.870Z,99021.50
2022-08-16T20:25:28.465Z,99024.41
2022-08-16T20:27:59.611Z,99028.19
2022-08-16T20:30:31.065Z,98972.66
2022-08-16T20:33:00.998Z,98990.44
2022-08-16T20:35:31.636Z,99027.19
2022-08-16T20:38:04.019Z,99036.56
2022-08-16T20:40:35.697Z,99036.06
2022-08-16T20:43:08.411Z,99034.75
2022-08-16T20:45:44.057Z,99024.38
2022-08-16T20:48:14.806Z,99022.13
2022-08-16T20:50:45.305Z,99032.16
2022-08-16T20:53:15.489Z,99040.59
2022-08-16T20:55:45.916Z,99039.94
2022-08-16T20:58:16.142Z,99042.75
2022-08-16T21:00:47.578Z,99040.28
2022-08-16T21:03:17.525Z,99045.41
2022-08-16T21:05:47.722Z,99028.81
2022-08-16T21:08:51.590Z,99045.75
2022-08-16T21:11:08.704Z,99048.88
2022-08-16T21:13:42.671Z,99046.13
2022-08-16T21:16:16.515Z,99050.78
2022-08-16T21:18:46.791Z,99050.34
2022-08-16T21:21:16.767Z,99047.00
2022-08-16T21:23:46.675Z,99051.75
2022-08-16T21:26:16.676Z,99056.72
2022-08-16T21:28:46.823Z,99062.34
2022-08-16T21:31:19.025Z,99032.75
2022-08-16T21:33:55.082Z,99067.56
2022-08-16T21:36:35.549Z,99017.97
2022-08-16T21:39:07.448Z,99066.88
2022-08-16T21:41:38.504Z,99060.94
2022-08-16T21:44:09.069Z,99063.19
2022-08-16T21:46:40.512Z,99060.19
2022-08-16T21:49:10.398Z,99062.34
2022-08-16T21:51:40.381Z,99057.97
2022-08-16T21:54:10.543Z,99051.56
2022-08-16T21:56:40.614Z,99048.09
2022-08-16T21:59:13.447Z,99044.31
2022-08-16T22:01:45.702Z,99040.66
2022-08-16T22:04:38.161Z,99048.72
2022-08-16T22:07:06.500Z,99049.78
2022-08-16T22:09:37.122Z,99053.25
2022-08-16T22:12:08.031Z,99053.13
2022-08-16T22:14:38.899Z,99061.00
2022-08-16T22:17:10.136Z,99061.81
2022-08-16T22:19:40.018Z,99072.34
2022-08-16T22:22:10.921Z,99065.38
2022-08-16T22:24:41.246Z,99059.69
2022-08-16T22:27:11.521Z,99065.22
2022-08-16T22:29:42.299Z,99062.97
2022-08-16T22:32:13.794Z,99070.94
2022-08-16T22:34:43.687Z,99068.78
2022-08-16T22:37:13.633Z,99062.75
2022-08-16T22:39:43.875Z,99059.44
2022-08-16T22:42:14.268Z,99034.69
2022-08-16T22:44:46.241Z,99054.69
2022-08-16T22:47:18.289Z,99049.88
2022-08-16T22:49:48.218Z,99042.00
2022-08-16T22:52:56.067Z,99038.22
2022-08-16T22:55:08.737Z,99051.13
2022-08-16T22:57:38.666Z,99061.22
2022-08-16T23:00:11.929Z,99042.75
2022-08-16T23:03:02.906Z,99038.59
2022-08-16T23:05:35.440Z,99045.59
2022-08-16T23:08:07.494Z,99054.78
2022-08-16T23:10:38.060Z,99064.41
2022-08-16T23:13:09.349Z,99049.66
2022-08-16T23:15:41.963Z,99046.50
2022-08-16T23:18:13.783Z,99019.03
2022-08-16T23:20:44.182Z,99058.00
2022-08-16T23:23:19.915Z,99038.09
2022-08-16T23:25:55.072Z,99036.66
2022-08-16T23:28:27.336Z,99044.75
2022-08-16T23:30:58.707Z,99043.91
2022-08-16T23:33:30.174Z,99052.47
2022-08-16T23:36:01.761Z,99060.78
2022-08-16T23:38:39.000Z,99057.91
2022-08-16T23:41:11.609Z,99058.81
2022-08-16T23:43:44.381Z,99042.00
2022-08-16T23:46:17.062Z,99063.97
2022-08-16T23:49:58.908Z,99065.28
2022-08-16T23:51:38.696Z,99058.88
2022-08-16T23:54:11.563Z,99061.34
2022-08-16T23:56:41.803Z,99052.84
2022-08-16T23:59:11.773Z,99052.34
